Time;durP1;ratioP1;P1;durP2;ratioP2;P2;SDS_P1;SDS_P2;PMS_P1;PMS_P2;Temp;Humidity;BMP_temperature;BMP_pressure;BME280_temperature;BME280_humidity;BME280_pressure;Samples;Min_cycle;Max_cycle;Signal;HPM_P1;HPM_P2
2023/07/23 00:01:33;;;;;;;20.60;18.45;;;14.40;95.30;;;;;;5051641;28;20036;-50
2023/07/23 00:04:00;;;;;;;20.37;16.90;;;14.40;95.20;;;;;;5053423;28;20108;-49
2023/07/23 00:06:27;;;;;;;19.30;16.48;;;14.40;95.40;;;;;;5051486;28;20766;-48
2023/07/23 00:08:54;;;;;;;20.83;17.23;;;14.40;95.30;;;;;;5048413;28;20041;-47
2023/07/23 00:11:19;;;;;;;19.75;16.45;;;14.40;95.30;;;;;;5051403;28;20023;-48
2023/07/23 00:13:47;;;;;;;19.48;16.33;;;14.40;95.30;;;;;;5050428;28;20033;-47
2023/07/23 00:16:13;;;;;;;17.45;15.65;;;14.40;95.20;;;;;;5041510;28;20452;-47
2023/07/23 00:18:43;;;;;;;17.88;14.70;;;14.40;95.20;;;;;;5053917;28;20025;-48
2023/07/23 00:21:09;;;;;;;17.70;14.80;;;14.40;95.20;;;;;;5051720;28;20136;-47
2023/07/23 00:23:39;;;;;;;19.75;14.00;;;14.40;95.20;;;;;;5037157;28;20041;-48
2023/07/23 00:26:06;;;;;;;21.42;16.73;;;14.40;95.20;;;;;;5040396;28;20025;-47
2023/07/23 00:28:33;;;;;;;17.48;15.55;;;14.40;95.10;;;;;;5040063;28;20099;-49
2023/07/23 00:31:00;;;;;;;16.73;14.90;;;14.40;95.20;;;;;;5042004;28;20082;-47
2023/07/23 00:33:26;;;;;;;19.85;16.33;;;14.40;95.10;;;;;;5051811;28;20017;-48
2023/07/23 00:35:53;;;;;;;22.30;15.95;;;14.40;95.10;;;;;;5041325;28;20021;-48
2023/07/23 00:38:19;;;;;;;20.08;15.10;;;14.40;95.10;;;;;;5052852;28;20075;-49
2023/07/23 00:40:45;;;;;;;19.73;17.30;;;14.40;95.20;;;;;;5050514;28;20055;-49
2023/07/23 00:43:12;;;;;;;19.67;16.52;;;14.40;95.10;;;;;;5052110;28;20562;-47
2023/07/23 00:45:39;;;;;;;21.23;16.95;;;14.40;95.20;;;;;;5051468;28;20082;-51
2023/07/23 00:48:06;;;;;;;18.63;16.00;;;14.40;95.10;;;;;;5052056;28;20353;-49
2023/07/23 00:50:35;;;;;;;21.55;16.40;;;14.40;95.20;;;;;;5042607;28;20041;-48
2023/07/23 00:53:04;;;;;;;19.25;17.23;;;14.40;95.20;;;;;;5032743;28;20025;-48
2023/07/23 00:55:30;;;;;;;21.17;17.13;;;14.40;95.20;;;;;;5032943;28;20095;-47
2023/07/23 00:57:56;;;;;;;20.25;16.30;;;14.40;95.10;;;;;;5042078;28;20033;-48
2023/07/23 01:00:28;;;;;;;20.65;17.17;;;14.40;95.20;;;;;;5038650;28;20021;-48
2023/07/23 01:02:55;;;;;;;19.42;17.42;;;14.40;95.10;;;;;;5032989;28;20026;-49
2023/07/23 01:05:23;;;;;;;22.77;16.73;;;14.40;95.30;;;;;;5050637;28;20102;-49
2023/07/23 01:07:53;;;;;;;17.98;16.08;;;14.40;95.20;;;;;;5052018;28;20043;-47
2023/07/23 01:10:21;;;;;;;18.92;16.92;;;14.40;95.30;;;;;;5041699;28;20029;-47
2023/07/23 01:12:51;;;;;;;22.80;16.98;;;14.40;95.20;;;;;;5052150;28;20440;-48
2023/07/23 01:15:21;;;;;;;18.63;16.38;;;14.40;95.20;;;;;;5051810;28;20032;-51
2023/07/23 01:17:50;;;;;;;18.25;16.23;;;14.40;95.30;;;;;;5044382;28;20496;-48
2023/07/23 01:20:17;;;;;;;22.35;16.02;;;14.40;95.30;;;;;;5032142;28;20033;-49
2023/07/23 01:22:43;;;;;;;20.90;17.35;;;14.40;95.30;;;;;;5050952;28;20108;-47
2023/07/23 01:25:10;;;;;;;17.83;15.82;;;14.50;95.30;;;;;;5041739;28;20083;-48
2023/07/23 01:27:37;;;;;;;21.85;16.98;;;14.40;95.20;;;;;;5048841;28;20056;-50
2023/07/23 01:30:08;;;;;;;17.73;15.48;;;14.40;95.20;;;;;;5032919;28;20049;-50
2023/07/23 01:32:36;;;;;;;19.48;15.15;;;14.50;95.20;;;;;;5043468;28;20033;-54
2023/07/23 01:35:13;;;;;;;18.27;15.65;;;14.50;95.20;;;;;;5047473;28;20037;-51
2023/07/23 01:37:45;;;;;;;19.50;16.15;;;14.50;95.20;;;;;;5045882;28;20053;-48
2023/07/23 01:40:15;;;;;;;17.38;14.63;;;14.50;95.10;;;;;;5032594;28;20025;-48
2023/07/23 01:42:44;;;;;;;19.40;16.05;;;14.50;95.30;;;;;;5049692;28;20053;-49
2023/07/23 01:45:12;;;;;;;17.33;15.25;;;14.50;95.20;;;;;;5049090;28;20025;-49
2023/07/23 01:47:40;;;;;;;16.10;14.18;;;14.50;95.10;;;;;;5050294;28;20362;-48
2023/07/23 01:50:06;;;;;;;17.70;14.90;;;14.50;95.10;;;;;;5052306;28;20074;-50
2023/07/23 01:52:35;;;;;;;17.52;14.75;;;14.50;95.10;;;;;;5049945;28;20107;-49
2023/07/23 01:55:02;;;;;;;14.48;12.50;;;14.50;95.10;;;;;;5032576;28;20025;-48
2023/07/23 01:57:29;;;;;;;15.40;13.77;;;14.40;95.10;;;;;;5050232;28;20049;-49
2023/07/23 01:59:56;;;;;;;16.98;13.60;;;14.40;95.10;;;;;;5051529;28;20079;-50
2023/07/23 02:02:22;;;;;;;17.05;12.73;;;14.40;95.00;;;;;;5040633;28;20025;-48
2023/07/23 02:04:50;;;;;;;14.70;11.88;;;14.40;95.10;;;;;;5046081;28;20457;-52
2023/07/23 02:07:17;;;;;;;13.77;11.77;;;14.40;95.10;;;;;;5055918;28;20036;-51
2023/07/23 02:09:49;;;;;;;16.58;12.73;;;14.40;95.20;;;;;;5055500;28;20041;-49
2023/07/23 02:12:19;;;;;;;18.75;13.02;;;14.30;95.10;;;;;;5042745;28;20033;-49
2023/07/23 02:14:45;;;;;;;13.70;11.00;;;14.40;95.30;;;;;;5052682;28;20442;-51
2023/07/23 02:17:12;;;;;;;13.35;11.88;;;14.30;95.20;;;;;;5053415;28;20461;-49
2023/07/23 02:19:38;;;;;;;21.20;12.27;;;14.30;95.30;;;;;;5053847;28;20119;-49
2023/07/23 02:22:07;;;;;;;15.55;12.60;;;14.30;95.30;;;;;;5045182;28;20482;-52
2023/07/23 02:24:33;;;;;;;14.65;11.98;;;14.30;95.30;;;;;;5038579;28;20056;-49
2023/07/23 02:27:01;;;;;;;14.32;12.05;;;14.30;95.40;;;;;;5045974;28;20500;-49
2023/07/23 02:29:27;;;;;;;13.52;11.73;;;14.40;95.40;;;;;;5055617;28;20040;-50
2023/07/23 02:31:56;;;;;;;14.40;11.48;;;14.30;95.40;;;;;;5051225;28;20037;-50
2023/07/23 02:34:23;;;;;;;14.07;11.48;;;14.30;95.50;;;;;;5046443;28;20348;-50
2023/07/23 02:36:50;;;;;;;13.85;11.32;;;14.30;95.50;;;;;;5050066;28;20036;-52
2023/07/23 02:39:17;;;;;;;12.57;11.05;;;14.30;95.50;;;;;;5045621;28;20025;-50
2023/07/23 02:41:44;;;;;;;12.48;9.75;;;14.30;95.60;;;;;;5043352;28;20053;-50
2023/07/23 02:44:12;;;;;;;13.77;9.45;;;14.40;95.60;;;;;;5055531;28;20025;-49
2023/07/23 02:46:38;;;;;;;13.27;10.38;;;14.30;95.60;;;;;;5053931;28;20021;-49
2023/07/23 02:49:05;;;;;;;14.50;10.55;;;14.30;95.70;;;;;;5053216;28;20358;-49
2023/07/23 02:51:31;;;;;;;12.73;10.15;;;14.30;95.50;;;;;;5055444;28;20040;-53
2023/07/23 02:53:58;;;;;;;12.48;11.15;;;14.20;95.60;;;;;;5052163;28;20066;-52
2023/07/23 02:56:25;;;;;;;11.15;9.90;;;14.30;95.80;;;;;;5036334;28;20018;-51
2023/07/23 02:58:51;;;;;;;14.23;9.57;;;14.30;95.70;;;;;;5054402;28;20052;-50
2023/07/23 03:01:17;;;;;;;12.82;9.65;;;14.30;95.70;;;;;;5048106;28;20369;-52
2023/07/23 03:03:47;;;;;;;13.38;9.80;;;14.20;95.80;;;;;;5055340;28;20159;-53
2023/07/23 03:06:17;;;;;;;11.45;9.10;;;14.20;95.70;;;;;;5052775;28;20036;-51
2023/07/23 03:08:43;;;;;;;;;;;14.30;95.80;;;;;;5053502;28;20037;-50
2023/07/23 03:11:14;;;;;;;10.10;8.38;;;14.20;95.80;;;;;;5049669;28;19913;-52
2023/07/23 03:13:40;;;;;;;11.23;9.05;;;14.30;95.90;;;;;;5053611;28;20025;-50
2023/07/23 03:16:08;;;;;;;12.38;8.32;;;14.20;95.80;;;;;;5053463;28;20017;-49
2023/07/23 03:18:34;;;;;;;16.38;8.93;;;14.20;95.90;;;;;;5055042;28;20025;-49
2023/07/23 03:21:00;;;;;;;8.70;7.45;;;14.30;95.80;;;;;;5037563;28;20099;-51
2023/07/23 03:23:26;;;;;;;8.45;7.35;;;14.20;95.90;;;;;;5049969;28;20037;-49
2023/07/23 03:25:53;;;;;;;9.68;8.07;;;14.20;95.90;;;;;;5051517;28;20037;-48
2023/07/23 03:28:19;;;;;;;9.98;7.53;;;14.20;95.90;;;;;;5047969;28;20029;-52
2023/07/23 03:30:46;;;;;;;11.02;9.25;;;14.20;96.00;;;;;;5052533;28;20029;-49
2023/07/23 03:33:13;;;;;;;10.82;7.95;;;14.20;96.00;;;;;;5044582;28;20033;-51
2023/07/23 03:35:39;;;;;;;9.65;8.30;;;14.20;95.90;;;;;;5049600;28;20100;-49
2023/07/23 03:38:06;;;;;;;9.50;8.20;;;14.30;96.00;;;;;;5054483;28;20419;-50
2023/07/23 03:40:34;;;;;;;11.93;8.10;;;14.30;96.00;;;;;;5052819;28;20446;-50
2023/07/23 03:43:04;;;;;;;11.75;7.47;;;14.20;95.90;;;;;;5047410;28;20032;-50
2023/07/23 03:45:30;;;;;;;9.80;8.05;;;14.20;96.00;;;;;;5048244;28;20472;-52
2023/07/23 03:47:56;;;;;;;10.73;7.88;;;14.30;96.00;;;;;;5052769;28;20424;-49
2023/07/23 03:50:22;;;;;;;11.40;7.35;;;14.30;96.00;;;;;;5053710;28;20025;-49
2023/07/23 03:52:48;;;;;;;10.75;7.43;;;14.30;96.10;;;;;;5051626;28;20086;-48
2023/07/23 03:55:15;;;;;;;11.00;7.47;;;14.30;96.00;;;;;;5038839;28;20103;-50
2023/07/23 03:57:44;;;;;;;9.95;7.57;;;14.30;96.00;;;;;;5050548;28;20039;-49
2023/07/23 04:00:11;;;;;;;10.15;6.80;;;14.40;95.90;;;;;;5052721;28;20104;-49
2023/07/23 04:02:37;;;;;;;10.43;6.65;;;14.30;95.90;;;;;;5047169;28;20037;-48
2023/07/23 04:05:05;;;;;;;11.15;6.93;;;14.30;96.00;;;;;;5048784;28;20092;-50
2023/07/23 04:07:33;;;;;;;11.50;7.40;;;14.30;96.00;;;;;;5053360;28;20048;-49
2023/07/23 04:10:03;;;;;;;11.05;7.13;;;14.30;95.90;;;;;;5044708;28;20365;-48
2023/07/23 04:12:33;;;;;;;10.73;8.27;;;14.40;95.90;;;;;;5044472;28;20041;-49
2023/07/23 04:15:01;;;;;;;8.77;7.53;;;14.40;95.90;;;;;;5052672;28;20028;-51
2023/07/23 04:17:28;;;;;;;14.02;8.50;;;14.40;96.00;;;;;;5051279;28;20036;-50
2023/07/23 04:19:58;;;;;;;9.93;6.78;;;14.30;95.90;;;;;;5046242;28;20017;-49
2023/07/23 04:22:27;;;;;;;9.90;8.07;;;14.30;95.90;;;;;;5053402;28;20041;-51
2023/07/23 04:24:54;;;;;;;11.20;7.32;;;14.40;96.00;;;;;;5049031;28;20045;-49
2023/07/23 04:27:21;;;;;;;10.35;7.55;;;14.40;96.00;;;;;;5040471;28;20021;-49
2023/07/23 04:29:47;;;;;;;11.38;7.88;;;14.40;96.00;;;;;;5050164;28;20048;-49
2023/07/23 04:32:14;;;;;;;9.35;7.03;;;14.40;95.90;;;;;;5047815;28;20508;-51
2023/07/23 04:34:45;;;;;;;11.45;8.32;;;14.40;96.00;;;;;;5051109;28;20032;-50
2023/07/23 04:37:13;;;;;;;9.93;7.53;;;14.40;96.00;;;;;;5050638;28;20025;-49
2023/07/23 04:39:40;;;;;;;9.57;7.50;;;14.40;95.80;;;;;;5050743;28;20028;-54
2023/07/23 04:42:07;;;;;;;9.82;7.80;;;14.40;95.90;;;;;;5050827;28;20053;-48
2023/07/23 04:44:33;;;;;;;9.77;7.97;;;14.40;95.90;;;;;;5052291;28;20048;-50
2023/07/23 04:46:59;;;;;;;10.27;9.02;;;14.40;95.90;;;;;;5037172;28;20037;-49
2023/07/23 04:49:25;;;;;;;12.80;8.55;;;14.40;95.90;;;;;;5046485;28;20092;-48
2023/07/23 04:51:52;;;;;;;12.40;8.88;;;14.40;95.90;;;;;;5049765;28;20112;-49
2023/07/23 04:54:18;;;;;;;14.05;10.15;;;14.40;95.90;;;;;;5034678;28;20110;-51
2023/07/23 04:56:44;;;;;;;10.85;8.25;;;14.40;95.80;;;;;;5052429;28;20072;-52
2023/07/23 04:59:10;;;;;;;10.45;8.38;;;14.40;95.90;;;;;;5048861;28;20509;-51
2023/07/23 05:01:35;;;;;;;9.93;8.10;;;14.40;95.90;;;;;;5034197;28;20151;-48
2023/07/23 05:04:01;;;;;;;13.10;8.38;;;14.40;95.90;;;;;;5049838;28;20033;-50
2023/07/23 05:06:30;;;;;;;10.77;8.45;;;14.40;95.90;;;;;;5051598;28;20017;-50
2023/07/23 05:08:56;;;;;;;12.25;9.27;;;14.40;95.80;;;;;;5049378;28;20035;-48
2023/07/23 05:11:23;;;;;;;11.75;9.32;;;14.40;95.90;;;;;;5050511;28;20035;-49
2023/07/23 05:13:53;;;;;;;11.30;8.95;;;14.40;95.80;;;;;;5049986;28;20517;-49
2023/07/23 05:16:18;;;;;;;11.90;9.25;;;14.40;95.90;;;;;;5049879;28;20028;-50
2023/07/23 05:18:45;;;;;;;11.68;9.52;;;14.40;95.90;;;;;;5047647;28;20025;-51
2023/07/23 05:21:11;;;;;;;11.93;9.77;;;14.40;95.70;;;;;;5050781;28;20116;-49
2023/07/23 05:23:38;;;;;;;14.55;10.20;;;14.40;95.80;;;;;;5052577;28;20386;-52
2023/07/23 05:26:03;;;;;;;12.13;8.57;;;14.40;95.80;;;;;;5052872;28;20150;-48
2023/07/23 05:28:29;;;;;;;13.05;9.02;;;14.40;95.80;;;;;;5041348;28;20034;-49
2023/07/23 05:30:59;;;;;;;12.07;8.52;;;14.40;95.80;;;;;;5036665;28;20068;-48
2023/07/23 05:33:32;;;;;;;13.23;9.70;;;14.40;95.80;;;;;;5049997;28;20417;-49
2023/07/23 05:36:02;;;;;;;9.85;8.82;;;14.40;95.70;;;;;;5047417;28;20041;-51
2023/07/23 05:38:28;;;;;;;;;;;14.50;95.90;;;;;;5033536;28;20037;-48
2023/07/23 05:40:58;;;;;;;16.65;10.32;;;14.40;95.70;;;;;;5036707;28;19921;-49
2023/07/23 05:43:25;;;;;;;14.30;9.80;;;14.50;95.80;;;;;;5052353;28;20526;-49
2023/07/23 05:45:52;;;;;;;11.68;9.80;;;14.50;95.70;;;;;;5052870;28;20029;-48
2023/07/23 05:48:18;;;;;;;12.15;9.68;;;14.40;95.70;;;;;;5054855;28;20049;-51
2023/07/23 05:50:45;;;;;;;12.80;10.02;;;14.50;95.70;;;;;;5053902;28;20064;-49
2023/07/23 05:53:11;;;;;;;12.05;10.10;;;14.50;95.70;;;;;;5055186;28;20408;-50
2023/07/23 05:55:37;;;;;;;11.05;8.95;;;14.40;95.70;;;;;;5041911;28;20100;-49
2023/07/23 05:58:06;;;;;;;17.90;11.25;;;14.40;95.60;;;;;;5053168;28;20029;-48
2023/07/23 06:00:32;;;;;;;14.43;9.88;;;14.40;95.60;;;;;;5054637;28;20497;-51
2023/07/23 06:02:58;;;;;;;12.70;10.57;;;14.50;95.60;;;;;;5044909;28;20055;-49
2023/07/23 06:05:25;;;;;;;13.85;9.13;;;14.50;95.60;;;;;;5053641;28;20048;-49
2023/07/23 06:07:55;;;;;;;12.32;9.60;;;14.50;95.60;;;;;;5036454;28;20453;-55
2023/07/23 06:10:22;;;;;;;11.75;9.90;;;14.50;95.60;;;;;;5050027;28;20016;-51
2023/07/23 06:12:50;;;;;;;14.43;9.73;;;14.50;95.60;;;;;;5050621;28;20116;-51
2023/07/23 06:15:16;;;;;;;12.98;9.85;;;14.50;95.60;;;;;;5052860;28;20396;-51
2023/07/23 06:17:43;;;;;;;19.15;10.10;;;14.60;95.60;;;;;;5051495;28;20052;-56
2023/07/23 06:20:10;;;;;;;12.85;9.02;;;14.60;95.60;;;;;;5053579;28;20027;-49
2023/07/23 06:22:37;;;;;;;13.40;8.93;;;14.60;95.50;;;;;;5052411;28;20061;-50
2023/07/23 06:25:04;;;;;;;12.23;8.88;;;14.60;95.60;;;;;;5048960;28;20029;-54
2023/07/23 06:27:33;;;;;;;14.55;9.25;;;14.70;95.50;;;;;;5055125;28;20339;-49
2023/07/23 06:30:01;;;;;;;13.43;9.23;;;14.60;95.50;;;;;;5055159;28;20497;-51
2023/07/23 06:32:27;;;;;;;12.40;9.82;;;14.70;95.50;;;;;;5053566;28;20037;-50
2023/07/23 06:34:54;;;;;;;14.18;9.85;;;14.70;95.50;;;;;;5041389;28;20087;-52
2023/07/23 06:37:21;;;;;;;12.80;10.45;;;14.70;95.40;;;;;;5051720;28;20083;-51
2023/07/23 06:39:48;;;;;;;13.40;10.05;;;14.70;95.40;;;;;;5046668;28;20025;-53
2023/07/23 06:42:14;;;;;;;15.38;9.65;;;14.80;95.40;;;;;;5053277;28;20065;-49
2023/07/23 06:44:42;;;;;;;12.00;10.02;;;14.80;95.40;;;;;;5042498;28;20453;-51
2023/07/23 06:47:09;;;;;;;12.93;10.77;;;14.80;95.50;;;;;;5053385;28;20028;-52
2023/07/23 06:49:36;;;;;;;13.10;10.07;;;14.80;95.40;;;;;;5054084;28;20392;-52
2023/07/23 06:52:03;;;;;;;13.85;10.45;;;14.80;95.40;;;;;;5050842;28;20116;-53
2023/07/23 06:54:28;;;;;;;17.17;9.73;;;14.80;95.40;;;;;;5044979;28;20025;-53
2023/07/23 06:56:55;;;;;;;12.65;9.45;;;14.80;95.30;;;;;;5054092;28;20559;-55
2023/07/23 06:59:22;;;;;;;14.32;10.38;;;14.90;95.50;;;;;;5051852;28;20368;-51
2023/07/23 07:01:50;;;;;;;11.90;9.75;;;14.90;95.30;;;;;;5051025;28;20341;-54
2023/07/23 07:04:16;;;;;;;12.20;9.23;;;14.80;95.30;;;;;;5052098;28;20451;-53
2023/07/23 07:06:43;;;;;;;18.90;11.20;;;14.90;95.40;;;;;;5054671;28;20112;-53
2023/07/23 07:09:14;;;;;;;14.32;11.40;;;14.90;95.30;;;;;;5051084;28;20039;-50
2023/07/23 07:11:39;;;;;;;14.23;10.70;;;15.00;95.30;;;;;;5054053;28;20374;-50
2023/07/23 07:14:05;;;;;;;14.68;10.82;;;15.10;95.40;;;;;;5046697;28;20033;-50
2023/07/23 07:16:32;;;;;;;14.23;10.98;;;15.10;95.40;;;;;;5050806;28;20108;-51
2023/07/23 07:18:59;;;;;;;13.65;11.18;;;15.10;95.10;;;;;;5052686;28;20025;-50
2023/07/23 07:21:26;;;;;;;13.68;10.15;;;15.10;95.20;;;;;;5052631;28;20346;-51
2023/07/23 07:23:54;;;;;;;15.27;10.70;;;15.10;95.30;;;;;;5050137;28;20025;-52
2023/07/23 07:26:21;;;;;;;14.13;11.05;;;15.10;95.20;;;;;;5053778;28;20060;-54
2023/07/23 07:28:46;;;;;;;11.73;9.73;;;15.20;95.30;;;;;;5050010;28;20403;-52
2023/07/23 07:31:15;;;;;;;12.57;10.13;;;15.20;95.40;;;;;;5047739;28;20060;-51
2023/07/23 07:33:43;;;;;;;14.48;10.85;;;15.30;95.30;;;;;;5054081;28;20057;-52
2023/07/23 07:36:11;;;;;;;13.52;9.43;;;15.30;95.20;;;;;;5045197;28;20449;-54
2023/07/23 07:38:37;;;;;;;11.68;8.80;;;15.30;95.20;;;;;;5053520;28;20510;-50
2023/07/23 07:41:05;;;;;;;13.02;10.32;;;15.40;95.20;;;;;;5045297;28;20041;-51
2023/07/23 07:43:31;;;;;;;13.30;10.50;;;15.40;95.00;;;;;;5050509;28;20037;-52
2023/07/23 07:45:59;;;;;;;12.65;10.98;;;15.40;94.90;;;;;;5053581;28;20322;-52
2023/07/23 07:48:27;;;;;;;11.90;10.27;;;15.40;94.80;;;;;;5052050;28;20438;-50
2023/07/23 07:51:06;;;;;;;13.35;10.45;;;15.40;94.80;;;;;;5052987;28;20085;-53
2023/07/23 07:53:34;;;;;;;13.00;10.00;;;15.50;94.80;;;;;;5051742;28;20025;-53
2023/07/23 07:56:01;;;;;;;18.00;11.43;;;15.50;94.60;;;;;;5046855;28;20030;-52
2023/07/23 07:58:28;;;;;;;12.75;9.88;;;15.40;94.40;;;;;;5041811;28;20021;-53
2023/07/23 08:01:03;;;;;;;13.85;10.55;;;15.40;94.50;;;;;;5050726;28;20029;-49
2023/07/23 08:03:31;;;;;;;18.02;10.73;;;15.50;94.50;;;;;;5051598;28;20063;-51
2023/07/23 08:05:58;;;;;;;12.65;9.60;;;15.50;94.50;;;;;;5034190;28;20021;-49
2023/07/23 08:08:31;;;;;;;13.43;11.05;;;15.70;94.60;;;;;;5035948;28;20445;-50
2023/07/23 08:11:01;;;;;;;13.68;11.13;;;15.80;94.60;;;;;;5049086;28;20025;-48
2023/07/23 08:13:28;;;;;;;14.80;10.88;;;15.80;94.50;;;;;;5051383;28;20037;-49
2023/07/23 08:15:55;;;;;;;13.80;11.07;;;15.90;94.40;;;;;;5050322;28;20016;-50
2023/07/23 08:18:23;;;;;;;14.93;10.52;;;15.80;94.30;;;;;;5045592;28;20022;-50
2023/07/23 08:20:57;;;;;;;12.77;9.77;;;15.80;94.00;;;;;;5044655;28;20052;-50
2023/07/23 08:23:26;;;;;;;13.15;10.93;;;15.80;94.00;;;;;;5048733;28;20029;-54
2023/07/23 08:25:56;;;;;;;;;;;15.80;93.90;;;;;;5034724;28;20067;-54
2023/07/23 08:28:26;;;;;;;;;;;15.90;94.10;;;;;;5052117;28;19952;-51
2023/07/23 08:30:53;;;;;;;;;;;15.90;94.00;;;;;;5046676;28;19916;-51
2023/07/23 08:33:26;;;;;;;12.45;10.90;;;15.80;93.90;;;;;;5046933;28;19956;-52
2023/07/23 08:35:53;;;;;;;16.38;11.02;;;15.90;94.00;;;;;;5033480;28;20533;-52
2023/07/23 08:38:19;;;;;;;14.70;10.98;;;15.80;93.90;;;;;;5033374;28;20319;-52
2023/07/23 08:40:46;;;;;;;12.82;11.45;;;15.70;94.00;;;;;;5046964;28;20033;-51
2023/07/23 08:43:31;;;;;;;13.35;11.30;;;15.70;94.10;;;;;;5052440;28;20036;-50
2023/07/23 08:46:24;;;;;;;16.17;12.18;;;15.80;94.00;;;;;;5046765;28;20025;-49
2023/07/23 08:49:05;;;;;;;14.38;11.25;;;15.80;94.30;;;;;;5050597;28;20095;-52
2023/07/23 08:51:46;;;;;;;15.57;11.27;;;15.90;94.00;;;;;;5052900;28;20044;-53
2023/07/23 08:54:15;;;;;;;14.80;12.50;;;15.80;94.00;;;;;;5044021;28;20365;-53
2023/07/23 08:56:42;;;;;;;13.18;10.88;;;15.90;94.10;;;;;;5044067;28;20028;-51
2023/07/23 08:59:09;;;;;;;15.52;12.13;;;15.90;94.30;;;;;;5051708;28;20021;-52
2023/07/23 09:01:37;;;;;;;18.85;11.77;;;16.00;94.40;;;;;;5051069;28;20056;-50
2023/07/23 09:04:09;;;;;;;12.88;10.45;;;16.00;94.10;;;;;;5047748;28;20024;-51
2023/07/23 09:06:39;;;;;;;14.93;11.90;;;16.00;94.20;;;;;;5050626;28;20105;-54
2023/07/23 09:09:09;;;;;;;14.55;11.55;;;16.00;94.10;;;;;;5049863;28;20385;-51
2023/07/23 09:11:45;;;;;;;16.55;11.05;;;15.90;93.80;;;;;;5048176;28;20365;-51
2023/07/23 09:14:21;;;;;;;13.70;11.50;;;15.90;94.00;;;;;;5046944;28;20021;-52
2023/07/23 09:16:49;;;;;;;16.30;12.50;;;16.00;94.20;;;;;;5049841;28;20074;-53
2023/07/23 09:19:29;;;;;;;16.77;11.75;;;16.10;94.30;;;;;;5047374;28;20029;-50
2023/07/23 09:21:58;;;;;;;;;;;16.10;94.20;;;;;;5041761;28;20530;-50
2023/07/23 09:24:39;;;;;;;15.35;11.40;;;16.20;94.20;;;;;;5051176;28;19977;-51
2023/07/23 09:27:13;;;;;;;14.48;12.02;;;16.20;94.10;;;;;;5035934;28;20041;-50
2023/07/23 09:29:45;;;;;;;17.33;12.60;;;16.30;94.20;;;;;;5032758;28;20029;-50
2023/07/23 09:32:25;;;;;;;16.75;11.43;;;16.40;94.20;;;;;;5042917;28;20033;-54
2023/07/23 09:34:53;;;;;;;;;;;16.40;94.00;;;;;;5050447;28;20107;-53
2023/07/23 09:37:19;;;;;;;19.92;13.13;;;16.40;94.00;;;;;;5052250;28;19912;-52
2023/07/23 09:39:45;;;;;;;23.95;12.90;;;16.40;94.20;;;;;;5050540;28;20025;-51
2023/07/23 09:42:12;;;;;;;21.02;12.68;;;16.50;94.30;;;;;;5032850;28;20137;-50
2023/07/23 09:44:40;;;;;;;14.35;11.95;;;16.60;94.20;;;;;;5052211;28;20468;-51
2023/07/23 09:47:06;;;;;;;19.48;12.90;;;16.60;93.90;;;;;;5049825;28;20040;-50
2023/07/23 09:49:33;;;;;;;15.68;12.40;;;16.70;93.90;;;;;;5049386;28;20037;-53
2023/07/23 09:52:08;;;;;;;16.05;12.30;;;16.70;93.90;;;;;;5052423;28;20075;-51
2023/07/23 09:54:36;;;;;;;16.02;12.48;;;16.70;93.70;;;;;;5048868;28;20037;-53
2023/07/23 09:57:07;;;;;;;17.52;12.20;;;16.60;93.60;;;;;;5047555;28;20032;-50
2023/07/23 09:59:36;;;;;;;15.27;12.48;;;16.60;94.00;;;;;;5050560;28;20121;-48
2023/07/23 10:02:06;;;;;;;13.98;11.80;;;16.60;94.00;;;;;;5050517;28;20091;-49
2023/07/23 10:04:37;;;;;;;14.27;11.95;;;16.60;93.70;;;;;;5049438;28;20045;-50
2023/07/23 10:07:05;;;;;;;13.68;11.60;;;16.60;93.60;;;;;;5022310;28;20434;-49
2023/07/23 10:09:34;;;;;;;12.98;11.23;;;16.60;93.90;;;;;;5047048;28;20116;-50
2023/07/23 10:12:02;;;;;;;11.63;10.43;;;16.60;93.90;;;;;;5051695;28;20060;-49
2023/07/23 10:14:30;;;;;;;17.73;10.85;;;16.60;94.10;;;;;;5048438;28;20140;-48
2023/07/23 10:16:58;;;;;;;16.00;10.30;;;16.60;93.90;;;;;;5036961;28;20468;-51
2023/07/23 10:19:27;;;;;;;12.70;10.48;;;16.60;93.60;;;;;;5031455;28;20033;-50
2023/07/23 10:21:56;;;;;;;12.80;10.38;;;16.60;93.90;;;;;;5044821;28;20025;-53
2023/07/23 10:24:40;;;;;;;11.77;9.80;;;16.70;93.90;;;;;;5050365;28;20473;-50
2023/07/23 10:27:18;;;;;;;11.70;9.50;;;16.80;93.80;;;;;;5051694;28;20049;-50
2023/07/23 10:30:20;;;;;;;14.20;8.77;;;16.70;93.90;;;;;;5052261;28;20033;-50
2023/07/23 10:33:09;;;;;;;12.75;8.52;;;16.70;93.90;;;;;;5052687;28;20043;-49
2023/07/23 10:35:53;;;;;;;9.70;7.65;;;16.90;94.10;;;;;;5047986;28;20041;-52
2023/07/23 10:38:27;;;;;;;9.52;8.02;;;16.90;94.00;;;;;;5044810;28;20021;-49
2023/07/23 10:40:54;;;;;;;9.90;7.80;;;16.90;94.10;;;;;;5054470;28;20108;-51
2023/07/23 10:43:21;;;;;;;10.43;7.45;;;17.00;94.00;;;;;;5052941;28;20488;-46
2023/07/23 10:46:06;;;;;;;12.18;8.30;;;16.90;93.50;;;;;;5049959;28;20036;-48
2023/07/23 10:48:50;;;;;;;10.73;7.28;;;16.90;93.50;;;;;;5054341;28;20044;-46
2023/07/23 10:51:43;;;;;;;8.70;7.07;;;16.90;93.60;;;;;;5053595;28;20128;-47
2023/07/23 10:54:11;;;;;;;7.82;6.15;;;16.90;93.60;;;;;;5053119;28;20033;-47
2023/07/23 10:56:41;;;;;;;7.15;5.95;;;16.80;93.90;;;;;;5046130;28;20040;-47
2023/07/23 10:59:27;;;;;;;9.70;5.90;;;16.80;93.90;;;;;;5043375;28;20033;-46
2023/07/23 11:01:54;;;;;;;8.30;4.78;;;16.90;93.70;;;;;;5053264;28;20037;-46
2023/07/23 11:04:26;;;;;;;8.68;5.15;;;16.80;93.60;;;;;;5053749;28;20040;-48
2023/07/23 11:07:24;;;;;;;7.20;4.82;;;16.80;93.60;;;;;;5039819;28;20087;-47
2023/07/23 11:09:53;;;;;;;7.68;5.63;;;16.70;93.30;;;;;;5051329;28;20037;-45
2023/07/23 11:12:22;;;;;;;8.07;6.05;;;16.70;93.30;;;;;;5051350;28;20378;-47
2023/07/23 11:14:47;;;;;;;6.55;5.78;;;16.80;93.50;;;;;;5034087;28;20053;-45
2023/07/23 11:17:13;;;;;;;6.70;4.95;;;16.90;93.50;;;;;;5050935;28;20457;-46
2023/07/23 11:19:44;;;;;;;6.85;5.63;;;16.90;93.40;;;;;;5049721;28;20052;-45
2023/07/23 11:22:16;;;;;;;8.77;6.25;;;16.90;93.20;;;;;;5053218;28;20085;-45
2023/07/23 11:24:43;;;;;;;7.10;5.78;;;17.00;93.40;;;;;;5052140;28;20078;-46
2023/07/23 11:27:13;;;;;;;6.65;5.65;;;17.10;93.50;;;;;;5044141;28;20387;-46
2023/07/23 11:29:41;;;;;;;8.40;5.82;;;17.10;93.50;;;;;;5035031;28;20500;-46
2023/07/23 11:32:14;;;;;;;8.75;5.88;;;17.00;93.20;;;;;;5049425;28;20037;-45
2023/07/23 11:34:43;;;;;;;7.20;5.55;;;16.90;93.10;;;;;;5051143;28;20040;-46
2023/07/23 11:37:10;;;;;;;6.47;5.75;;;16.80;93.10;;;;;;5050879;28;20401;-45
2023/07/23 11:39:50;;;;;;;7.80;5.72;;;16.60;93.20;;;;;;5053219;28;20167;-46
2023/07/23 11:42:19;;;;;;;8.20;5.38;;;16.60;93.50;;;;;;5051205;28;20061;-45
2023/07/23 11:45:16;;;;;;;6.78;5.68;;;16.70;93.70;;;;;;5051130;28;20070;-47
2023/07/23 11:48:01;;;;;;;7.53;5.53;;;16.70;93.80;;;;;;5050295;28;20520;-45
2023/07/23 11:50:29;;;;;;;9.75;6.22;;;16.70;94.00;;;;;;5054110;28;20538;-45
2023/07/23 11:53:03;;;;;;;7.03;6.32;;;16.70;93.70;;;;;;5033954;28;20040;-45
2023/07/23 11:55:29;;;;;;;8.15;6.75;;;16.70;93.70;;;;;;5031753;28;20029;-45
2023/07/23 11:57:58;;;;;;;8.15;7.35;;;16.80;93.50;;;;;;5032921;28;20087;-45
2023/07/23 12:00:48;;;;;;;7.55;6.10;;;16.90;93.60;;;;;;5033122;28;20033;-45
2023/07/23 12:03:16;;;;;;;7.97;6.07;;;16.90;93.50;;;;;;5050566;28;20033;-45
2023/07/23 12:05:45;;;;;;;6.57;5.50;;;16.90;93.30;;;;;;5053101;28;20032;-48
2023/07/23 12:08:14;;;;;;;9.00;6.32;;;16.90;93.40;;;;;;5038619;28;20362;-46
2023/07/23 12:10:42;;;;;;;7.00;5.63;;;16.90;93.10;;;;;;5046297;28;20112;-47
2023/07/23 12:13:13;;;;;;;8.95;6.38;;;16.90;93.10;;;;;;5041241;28;20029;-45
2023/07/23 12:15:43;;;;;;;7.72;6.82;;;16.90;93.20;;;;;;5037225;28;20103;-45
2023/07/23 12:18:09;;;;;;;6.70;5.60;;;16.90;93.10;;;;;;5053391;28;20082;-45
2023/07/23 12:20:40;;;;;;;6.90;5.53;;;16.90;93.10;;;;;;5052965;28;20495;-45
2023/07/23 12:23:13;;;;;;;7.70;6.32;;;16.90;93.20;;;;;;5052305;28;20079;-46
2023/07/23 12:25:39;;;;;;;7.20;6.35;;;16.90;93.10;;;;;;5046441;28;20024;-45
2023/07/23 12:28:08;;;;;;;7.97;7.13;;;16.80;92.90;;;;;;5053047;28;20039;-45
2023/07/23 12:30:35;;;;;;;7.75;5.78;;;16.70;93.10;;;;;;5050760;28;20028;-45
2023/07/23 12:33:01;;;;;;;6.75;5.65;;;16.80;93.20;;;;;;5052416;28;20040;-47
2023/07/23 12:35:28;;;;;;;7.07;5.82;;;16.80;93.10;;;;;;5033608;28;20053;-45
2023/07/23 12:37:58;;;;;;;7.72;6.45;;;16.80;93.00;;;;;;5048189;28;20459;-47
2023/07/23 12:40:24;;;;;;;8.30;7.28;;;16.80;92.90;;;;;;5047516;28;20033;-47
2023/07/23 12:42:51;;;;;;;7.93;6.25;;;16.80;93.00;;;;;;5049990;28;20067;-45
2023/07/23 12:45:17;;;;;;;8.70;7.00;;;16.80;93.10;;;;;;5051914;28;20391;-46